createdAt,value
2023-01-12T00:01:09.118Z,2.41
2023-01-12T00:04:01.080Z,2.38
2023-01-12T00:06:48.175Z,2.35
2023-01-12T00:09:35.060Z,2.33
2023-01-12T00:12:21.332Z,2.30
2023-01-12T00:15:04.734Z,2.29
2023-01-12T00:17:44.239Z,2.28
2023-01-12T00:20:24.261Z,2.26
2023-01-12T00:23:05.788Z,2.26
2023-01-12T00:25:53.012Z,2.26
2023-01-12T00:28:41.968Z,2.26
2023-01-12T00:31:28.851Z,2.27
2023-01-12T00:34:20.543Z,2.28
2023-01-12T00:37:22.472Z,2.29
2023-01-12T00:40:26.413Z,2.32
2023-01-12T00:43:34.415Z,2.31
2023-01-12T00:46:24.051Z,2.31
2023-01-12T00:49:16.884Z,2.30
2023-01-12T00:51:59.344Z,2.29
2023-01-12T00:54:39.927Z,2.29
2023-01-12T00:57:21.957Z,2.28
2023-01-12T01:00:05.985Z,2.27
2023-01-12T01:02:44.168Z,2.27
2023-01-12T01:05:20.796Z,2.28
2023-01-12T01:07:57.442Z,2.28
2023-01-12T01:10:36.228Z,2.29
2023-01-12T01:13:11.725Z,2.29
2023-01-12T01:15:46.945Z,2.27
2023-01-12T01:18:20.288Z,2.27
2023-01-12T01:20:54.254Z,2.27
2023-01-12T01:23:30.855Z,2.25
2023-01-12T01:26:07.074Z,2.27
2023-01-12T01:28:39.700Z,2.27
2023-01-12T01:31:15.005Z,2.30
2023-01-12T01:33:46.934Z,2.34
2023-01-12T01:36:20.121Z,2.37
2023-01-12T01:38:56.489Z,2.38
2023-01-12T01:41:32.086Z,2.37
2023-01-12T01:44:06.747Z,2.38
2023-01-12T01:46:56.673Z,2.40
2023-01-12T01:49:52.891Z,2.42
2023-01-12T01:52:42.193Z,2.48
2023-01-12T01:55:26.478Z,2.50
2023-01-12T01:58:19.767Z,2.50
2023-01-12T02:01:01.586Z,2.50
2023-01-12T02:03:39.223Z,2.52
2023-01-12T02:06:15.527Z,2.54
2023-01-12T02:09:18.849Z,2.54
2023-01-12T02:12:12.835Z,2.55
2023-01-12T02:15:08.289Z,2.55
2023-01-12T02:18:01.903Z,2.56
2023-01-12T02:20:48.930Z,2.56
2023-01-12T02:23:29.130Z,2.59
2023-01-12T02:26:31.906Z,2.61
2023-01-12T02:29:25.520Z,2.62
2023-01-12T02:36:18.396Z,2.63
2023-01-12T02:39:07.295Z,2.65
2023-01-12T02:42:22.616Z,2.67
2023-01-12T02:45:16.683Z,2.69
2023-01-12T02:47:52.330Z,2.68
2023-01-12T02:54:45.866Z,2.74
2023-01-12T02:57:18.593Z,2.77
2023-01-12T02:59:57.899Z,2.78
2023-01-12T03:02:30.424Z,2.79
2023-01-12T03:05:03.159Z,2.78
2023-01-12T03:07:50.383Z,2.79
2023-01-12T03:10:52.178Z,2.82
2023-01-12T03:13:27.368Z,2.85
2023-01-12T03:16:01.238Z,2.86
2023-01-12T03:19:01.272Z,2.87
2023-01-12T03:21:42.381Z,2.88
2023-01-12T03:24:32.364Z,2.89
2023-01-12T03:27:21.903Z,2.91
2023-01-12T03:30:02.516Z,2.93
2023-01-12T03:32:35.625Z,2.96
2023-01-12T03:35:10.277Z,2.97
2023-01-12T03:38:00.201Z,2.98
2023-01-12T03:40:42.552Z,3.02
2023-01-12T03:43:30.547Z,3.07
2023-01-12T03:46:16.761Z,3.11
2023-01-12T03:49:03.645Z,3.12
2023-01-12T03:51:49.344Z,3.15
2023-01-12T03:54:29.500Z,3.18
2023-01-12T03:57:12.469Z,3.21
2023-01-12T03:59:55.871Z,3.25
2023-01-12T04:02:29.189Z,3.28
2023-01-12T04:05:01.334Z,3.28
2023-01-12T04:07:34.620Z,3.30
2023-01-12T04:10:05.386Z,3.33
2023-01-12T04:12:35.786Z,3.35
2023-01-12T04:15:07.324Z,3.36
2023-01-12T04:17:38.694Z,3.39
2023-01-12T04:20:10.423Z,3.41
2023-01-12T04:22:46.810Z,3.45
2023-01-12T04:25:24.167Z,3.51
2023-01-12T04:27:57.380Z,3.55
2023-01-12T04:30:30.183Z,3.57
2023-01-12T04:33:07.351Z,3.59
2023-01-12T04:35:48.301Z,3.63
2023-01-12T04:38:28.380Z,3.68
2023-01-12T04:41:08.070Z,3.74
2023-01-12T04:43:49.664Z,3.77
2023-01-12T04:46:30.592Z,3.81
2023-01-12T04:49:13.977Z,3.86
2023-01-12T04:51:50.408Z,3.90
2023-01-12T04:54:28.345Z,3.94
2023-01-12T04:56:59.728Z,3.98
2023-01-12T04:59:30.467Z,4.01
2023-01-12T05:02:02.414Z,4.03
2023-01-12T05:04:33.168Z,4.06
2023-01-12T05:07:03.620Z,4.09
2023-01-12T05:09:57.747Z,4.11
2023-01-12T05:12:33.778Z,4.17
2023-01-12T05:15:13.971Z,4.22
2023-01-12T05:18:01.165Z,4.25
2023-01-12T05:20:43.525Z,4.27
2023-01-12T05:23:17.060Z,4.30
2023-01-12T05:25:53.431Z,4.34
2023-01-12T05:28:30.246Z,4.37
2023-01-12T05:31:08.457Z,4.40
2023-01-12T05:33:43.891Z,4.42
2023-01-12T05:36:19.637Z,4.43
2023-01-12T05:39:00.580Z,4.43
2023-01-12T05:42:02.284Z,4.48
2023-01-12T05:44:53.017Z,4.50
2023-01-12T05:47:55.980Z,4.53
2023-01-12T05:50:43.204Z,4.53
2023-01-12T05:53:26.790Z,4.55
2023-01-12T05:56:10.394Z,4.60
2023-01-12T05:59:02.568Z,4.64
2023-01-12T06:01:41.321Z,4.65
2023-01-12T06:04:17.359Z,4.68
2023-01-12T06:06:50.356Z,4.67
2023-01-12T06:09:34.161Z,4.69
2023-01-12T06:12:27.445Z,4.71
2023-01-12T06:14:59.315Z,4.70
2023-01-12T06:17:29.829Z,4.73
2023-01-12T06:20:01.015Z,4.74
2023-01-12T06:22:34.330Z,4.72
2023-01-12T06:25:07.501Z,4.74
2023-01-12T06:27:38.839Z,4.75
2023-01-12T06:30:13.431Z,4.75
2023-01-12T06:32:42.893Z,4.76
2023-01-12T06:35:19.149Z,4.75
2023-01-12T06:37:50.468Z,4.76
2023-01-12T06:40:23.642Z,4.77
2023-01-12T06:42:54.034Z,4.80
2023-01-12T06:45:24.607Z,4.83
2023-01-12T06:47:54.477Z,4.87
2023-01-12T06:50:27.356Z,4.88
2023-01-12T06:53:00.239Z,4.89
2023-01-12T06:55:30.561Z,4.90
2023-01-12T06:58:05.959Z,4.92
2023-01-12T07:04:58.592Z,5.00
2023-01-12T07:07:34.915Z,5.00
2023-01-12T07:10:10.887Z,5.03
2023-01-12T07:12:41.335Z,5.03
2023-01-12T07:15:13.069Z,5.03
2023-01-12T07:17:43.719Z,5.05
2023-01-12T07:42:58.499Z,5.61
2023-01-12T09:40:43.836Z,6.11
2023-01-12T10:59:21.643Z,7.14
2023-01-12T11:02:03.183Z,7.18
2023-01-12T11:04:39.145Z,7.20
2023-01-12T11:07:19.136Z,7.24
2023-01-12T12:00:59.265Z,7.65
2023-01-12T12:03:44.854Z,7.65
2023-01-12T12:06:22.470Z,7.62
2023-01-12T12:09:23.804Z,7.58
2023-01-12T12:12:00.992Z,7.62
2023-01-12T12:14:57.643Z,7.65
2023-01-12T12:17:47.824Z,7.63
2023-01-12T12:20:34.270Z,7.61
2023-01-12T12:23:36.804Z,7.63
2023-01-12T12:26:15.740Z,7.69
2023-01-12T12:29:27.366Z,7.74
2023-01-12T12:32:29.663Z,7.77
2023-01-12T12:35:12.839Z,7.83
2023-01-12T12:37:55.050Z,7.78
2023-01-12T12:41:05.832Z,7.70
2023-01-12T12:43:57.023Z,7.67
2023-01-12T12:46:57.402Z,7.56
2023-01-12T12:49:33.135Z,7.49
2023-01-12T12:52:02.836Z,7.43
2023-01-12T12:54:32.824Z,7.40
2023-01-12T12:57:01.569Z,7.34
2023-01-12T12:59:45.451Z,7.30
2023-01-12T13:02:57.505Z,7.26
2023-01-12T13:05:50.369Z,7.23
2023-01-12T13:11:14.262Z,7.25
2023-01-12T13:14:19.657Z,7.49
2023-01-12T13:18:35.694Z,7.70
2023-01-12T13:21:46.104Z,7.89
2023-01-12T13:24:34.860Z,8.25
2023-01-12T13:27:30.945Z,8.58
2023-01-12T13:30:36.683Z,8.80
2023-01-12T13:33:36.940Z,8.94
2023-01-12T13:36:11.789Z,8.94
2023-01-12T13:38:57.708Z,8.76
2023-01-12T13:42:54.183Z,8.41
2023-01-12T13:46:27.499Z,8.06
2023-01-12T13:49:34.233Z,7.76
2023-01-12T13:52:21.409Z,7.59
2023-01-12T13:55:07.194Z,7.50
2023-01-12T13:58:15.219Z,7.44
2023-01-12T14:00:57.140Z,7.39
2023-01-12T14:03:53.074Z,7.34
2023-01-12T14:06:40.324Z,7.27
2023-01-12T14:09:45.962Z,7.20
2023-01-12T14:12:42.371Z,7.14
2023-01-12T14:15:50.407Z,7.09
2023-01-12T14:18:24.667Z,7.05
2023-01-12T14:21:00.563Z,7.00
2023-01-12T14:23:34.932Z,6.94
2023-01-12T14:26:26.251Z,6.88
2023-01-12T14:33:33.064Z,6.78
2023-01-12T14:36:48.686Z,6.71
2023-01-12T14:39:34.172Z,6.66
2023-01-12T14:42:24.773Z,6.59
2023-01-12T14:45:14.778Z,6.52
2023-01-12T14:47:44.784Z,6.43
2023-01-12T14:50:21.071Z,6.38
2023-01-12T14:52:53.455Z,6.34
2023-01-12T14:55:25.291Z,6.31
2023-01-12T14:58:06.199Z,6.27
2023-01-12T15:00:41.129Z,6.24
2023-01-12T15:03:28.817Z,6.22
2023-01-12T15:06:05.682Z,6.16
2023-01-12T15:08:39.144Z,6.12
2023-01-12T15:11:19.910Z,6.08
2023-01-12T15:13:58.475Z,6.03
2023-01-12T15:17:04.663Z,5.97
2023-01-12T15:23:07.373Z,5.84
2023-01-12T15:25:50.620Z,5.78
2023-01-12T15:29:09.079Z,5.73
2023-01-12T15:31:56.510Z,5.70
2023-01-12T15:39:24.800Z,5.54
2023-01-12T15:51:28.170Z,5.39
2023-01-12T15:58:13.512Z,5.35
2023-01-12T16:10:24.938Z,5.24
2023-01-12T16:14:11.046Z,5.19
2023-01-12T16:16:43.282Z,5.14
2023-01-12T16:19:24.665Z,5.11
2023-01-12T16:22:03.291Z,5.07
2023-01-12T16:24:33.154Z,5.03
2023-01-12T16:27:02.252Z,5.00
2023-01-12T16:29:31.244Z,4.94
2023-01-12T16:32:00.360Z,4.89
2023-01-12T16:34:29.187Z,4.88
2023-01-12T16:37:00.581Z,4.83
2023-01-12T16:39:30.383Z,4.79
2023-01-12T16:42:05.732Z,4.77
2023-01-12T16:44:39.268Z,4.75
2023-01-12T16:47:13.114Z,4.72
2023-01-12T16:49:42.344Z,4.66
2023-01-12T16:52:15.766Z,4.62
2023-01-12T16:54:45.200Z,4.60
2023-01-12T16:57:16.637Z,4.59
2023-01-12T16:59:45.808Z,4.57
2023-01-12T17:02:16.264Z,4.55
2023-01-12T17:04:45.991Z,4.50
2023-01-12T17:07:15.775Z,4.48
2023-01-12T17:09:44.876Z,4.47
2023-01-12T17:12:13.883Z,4.46
2023-01-12T17:15:16.192Z,4.44
2023-01-12T17:17:54.289Z,4.41
2023-01-12T17:20:28.809Z,4.39
2023-01-12T17:23:26.256Z,4.39
2023-01-12T17:26:42.634Z,4.39
2023-01-12T17:29:12.941Z,4.39
2023-01-12T17:31:42.311Z,4.36
2023-01-12T17:34:13.213Z,4.34
2023-01-12T17:36:43.281Z,4.34
2023-01-12T17:39:14.863Z,4.32
2023-01-12T17:42:04.852Z,4.32
2023-01-12T17:44:34.267Z,4.30
2023-01-12T17:47:03.015Z,4.27
2023-01-12T17:49:31.671Z,4.25
2023-01-12T17:52:01.989Z,4.24
2023-01-12T17:54:31.446Z,4.24
2023-01-12T17:57:01.368Z,4.24
2023-01-12T17:59:30.062Z,4.24
2023-01-12T18:02:00.540Z,4.24
2023-01-12T18:04:32.661Z,4.21
2023-01-12T18:07:01.691Z,4.21
2023-01-12T18:09:31.716Z,4.21
2023-01-12T18:12:00.906Z,4.22
2023-01-12T18:14:29.751Z,4.24
2023-01-12T18:21:17.929Z,4.25
2023-01-12T18:23:58.266Z,4.27
2023-01-12T18:26:38.963Z,4.27
2023-01-12T18:29:14.554Z,4.29
2023-01-12T18:31:48.504Z,4.31
2023-01-12T18:34:24.636Z,4.31
2023-01-12T18:36:55.975Z,4.32
2023-01-12T18:39:31.205Z,4.31
2023-01-12T18:42:25.266Z,4.34
2023-01-12T18:45:03.800Z,4.36
2023-01-12T18:47:53.966Z,4.37
2023-01-12T18:50:43.303Z,4.39
2023-01-12T18:53:32.713Z,4.41
2023-01-12T18:56:09.412Z,4.43
2023-01-12T18:58:44.280Z,4.45
2023-01-12T19:01:27.635Z,4.46
2023-01-12T19:04:04.277Z,4.46
2023-01-12T19:06:48.906Z,4.47
2023-01-12T19:09:36.815Z,4.47
2023-01-12T19:12:08.923Z,4.47
2023-01-12T19:15:01.567Z,4.48
2023-01-12T19:23:48.259Z,4.50
2023-01-12T19:26:38.759Z,4.48
2023-01-12T19:29:10.971Z,4.48
2023-01-12T19:31:40.096Z,4.45
2023-01-12T19:34:09.973Z,4.42
2023-01-12T19:36:39.335Z,4.42
2023-01-12T19:39:09.878Z,4.44
2023-01-12T19:42:00.255Z,4.46
2023-01-12T19:44:29.867Z,4.49
2023-01-12T19:46:59.580Z,4.48
2023-01-12T19:49:28.371Z,4.49
2023-01-12T19:51:57.729Z,4.51
2023-01-12T19:54:29.524Z,4.53
2023-01-12T19:56:58.712Z,4.55
2023-01-12T19:59:51.316Z,4.57
2023-01-12T20:02:34.521Z,4.58
2023-01-12T20:05:03.510Z,4.60
2023-01-12T20:07:32.249Z,4.64
2023-01-12T20:10:00.908Z,4.68
2023-01-12T20:12:30.457Z,4.69
2023-01-12T20:14:58.893Z,4.70
2023-01-12T20:17:28.133Z,4.71
2023-01-12T20:19:56.825Z,4.73
2023-01-12T20:22:25.507Z,4.75
2023-01-12T20:24:54.037Z,4.76
2023-01-12T20:27:24.425Z,4.76
2023-01-12T20:29:56.793Z,4.76
2023-01-12T20:32:31.913Z,4.78
2023-01-12T20:35:06.217Z,4.80
2023-01-12T20:37:38.809Z,4.79
2023-01-12T20:40:24.085Z,4.80
2023-01-12T20:42:59.759Z,4.80
2023-01-12T20:45:28.486Z,4.82
2023-01-12T20:47:57.188Z,4.84
2023-01-12T20:50:25.939Z,4.84
2023-01-12T20:52:55.579Z,4.86
2023-01-12T20:55:23.974Z,4.87
2023-01-12T20:57:53.171Z,4.89
2023-01-12T21:00:21.816Z,4.90
2023-01-12T21:03:01.006Z,4.91
2023-01-12T21:05:35.582Z,4.92
2023-01-12T21:08:08.375Z,4.91
2023-01-12T21:10:41.338Z,4.91
2023-01-12T21:13:11.133Z,4.92
2023-01-12T21:15:42.551Z,4.93
2023-01-12T21:18:14.026Z,4.95
2023-01-12T21:20:44.773Z,4.96
2023-01-12T21:23:16.967Z,4.97
2023-01-12T21:25:47.272Z,4.98
2023-01-12T21:28:18.023Z,5.00
2023-01-12T21:30:49.009Z,5.01
2023-01-12T21:33:18.242Z,5.02
2023-01-12T21:35:56.803Z,5.03
2023-01-12T21:38:30.878Z,5.03
2023-01-12T21:41:11.280Z,5.05
2023-01-12T21:43:41.398Z,5.08
2023-01-12T21:46:12.117Z,5.09
2023-01-12T21:48:41.881Z,5.10
2023-01-12T21:51:14.569Z,5.10
2023-01-12T21:53:45.591Z,5.12
2023-01-12T21:56:15.691Z,5.13
2023-01-12T21:58:46.613Z,5.15
2023-01-12T22:01:16.811Z,5.18
2023-01-12T22:03:47.604Z,5.19
2023-01-12T22:06:20.455Z,5.20
2023-01-12T22:08:50.618Z,5.18
2023-01-12T22:11:21.254Z,5.18
2023-01-12T22:13:51.687Z,5.20
2023-01-12T22:16:22.438Z,5.21
2023-01-12T22:18:54.234Z,5.22
2023-01-12T22:21:24.891Z,5.23
2023-01-12T22:23:56.587Z,5.21
2023-01-12T22:26:29.234Z,5.22
2023-01-12T22:28:59.039Z,5.22
2023-01-12T22:31:32.963Z,5.23
2023-01-12T22:34:07.221Z,5.24
2023-01-12T22:36:55.319Z,5.24
2023-01-12T22:39:25.033Z,5.23
2023-01-12T22:41:58.016Z,5.22
2023-01-12T22:44:27.279Z,5.24
2023-01-12T22:46:56.247Z,5.23
2023-01-12T22:49:25.471Z,5.22
2023-01-12T22:51:54.618Z,5.20
2023-01-12T22:54:23.774Z,5.17
2023-01-12T22:56:52.466Z,5.15
2023-01-12T22:59:21.838Z,5.15
2023-01-12T23:01:51.457Z,5.13
2023-01-12T23:04:20.781Z,5.13
2023-01-12T23:06:49.584Z,5.10
2023-01-12T23:09:18.710Z,5.09
2023-01-12T23:11:47.484Z,5.09
2023-01-12T23:14:16.880Z,5.08
2023-01-12T23:16:45.664Z,5.08
2023-01-12T23:19:14.527Z,5.07
2023-01-12T23:21:44.234Z,5.04
2023-01-12T23:24:13.274Z,5.02
2023-01-12T23:26:42.487Z,5.02
2023-01-12T23:29:11.276Z,5.01
2023-01-12T23:31:40.232Z,5.00
2023-01-12T23:34:09.130Z,5.00
2023-01-12T23:36:38.362Z,4.99
2023-01-12T23:39:09.551Z,4.99
2023-01-12T23:41:39.026Z,4.99
2023-01-12T23:44:10.369Z,4.99
2023-01-12T23:46:41.013Z,4.98
2023-01-12T23:49:10.350Z,4.99
2023-01-12T23:51:38.845Z,4.97
2023-01-12T23:54:07.932Z,4.97
2023-01-12T23:56:36.556Z,4.97
2023-01-12T23:59:04.971Z,4.98
